Terminal Aerodrome Forecast
Issued by NWS

Current Version | Previous Version | Text Only | Print | Product List | Glossary On
Versions: 1 2 3 4 5 6 7 8 9 10 11 12
717
FTUS45 KABQ 051726
TAFAEG
TAF
KAEG 051726Z 0518/0618 15008KT P6SM FEW100
     FM052100 17014G22KT P6SM BKN110
     FM060230 16009KT P6SM SCT120
     FM061700 17015KT P6SM SKC=

USA.gov is the U.S. government's official web portal to all federal, state and local government web resources and services.